Flowes Store, North Carolina
Current Conditions -  °F | °C
As of 6:51 PM on Saturday 22 Nov 2014 (Local Time) from KJQF Reporting Station
Clear Clear  
Wind Chill: 45°   Ceiling: Unl
Heat Index: 45°   Visibility: 10mi
Dew Point: 21°   Wind: 0mph
Humidity: 39%   Direction: NA
Pressure: 30.38"   Gusts: NA
Location:  35.3735°N, 80.5212°W
Report Text: KJQF 222351Z 00000KT 10SM CLR 07/M06 A3038
Loading
Personal Weather Stations






























Interactive Weather Map New forecast layout! Learn more

10-Day Weather Forecast

Advertisements
Track Severe Weather on mobile